Chitungwiza, Zimbabwe
Current Conditions -  °F | °C
As of 9:00 PM on Friday 21 Nov 2014 (Local Time) from FVHA Reporting Station
Clear Clear  
Wind Chill: 73°   Ceiling: Unl
Heat Index: 73°   Visibility: 6mi
Dew Point: 50°   Wind: 10mph
Humidity: 44%   Direction: 100°E
Pressure: 30.18"   Gusts: NA
Location:  18.78°S, 32.62°E
Report Text: FVHA 211900Z 10009KT CAVOK 23/10 Q1022 NOSIG
Loading
Personal Weather Stations






























Interactive Weather Map New forecast layout! Learn more

10-Day Weather Forecast

Advertisements
Track Severe Weather on mobile